createdAt,value
2022-12-11T00:02:05.909Z,77.84
2022-12-11T00:04:32.870Z,77.47
2022-12-11T00:06:59.581Z,77.74
2022-12-11T00:09:26.265Z,77.87
2022-12-11T00:11:53.193Z,78.13
2022-12-11T00:14:19.949Z,78.03
2022-12-11T00:16:48.750Z,77.73
2022-12-11T00:19:15.980Z,77.35
2022-12-11T00:21:42.696Z,78.25
2022-12-11T00:24:09.830Z,77.81
2022-12-11T00:26:36.466Z,77.92
2022-12-11T00:29:05.582Z,77.29
2022-12-11T00:31:32.354Z,77.56
2022-12-11T00:33:59.010Z,77.56
2022-12-11T00:36:27.162Z,77.86
2022-12-11T00:38:54.134Z,77.36
2022-12-11T00:41:21.385Z,77.52
2022-12-11T00:43:48.581Z,77.53
2022-12-11T00:46:16.272Z,77.77
2022-12-11T00:48:43.002Z,77.75
2022-12-11T00:51:10.727Z,78.21
2022-12-11T00:53:38.795Z,77.39
2022-12-11T00:56:17.478Z,78.56
2022-12-11T00:58:45.473Z,78.64
2022-12-11T01:01:16.410Z,78.40
2022-12-11T01:03:43.153Z,77.86
2022-12-11T01:06:17.495Z,77.56
2022-12-11T01:08:45.506Z,78.03
2022-12-11T01:11:14.398Z,77.67
2022-12-11T01:13:42.368Z,78.06
2022-12-11T01:16:14.654Z,78.56
2022-12-11T01:18:42.250Z,78.56
2022-12-11T01:21:12.454Z,78.42
2022-12-11T01:23:39.901Z,78.73
2022-12-11T01:26:12.437Z,78.52
2022-12-11T01:28:40.164Z,78.19
2022-12-11T01:31:15.051Z,78.67
2022-12-11T01:33:41.974Z,78.73
2022-12-11T01:36:21.142Z,78.34
2022-12-11T01:38:49.468Z,78.88
2022-12-11T01:41:18.147Z,78.72
2022-12-11T01:44:15.562Z,78.48
2022-12-11T01:46:43.037Z,78.57
2022-12-11T01:49:13.556Z,78.76
2022-12-11T01:51:46.043Z,78.45
2022-12-11T01:54:15.092Z,78.45
2022-12-11T01:56:44.985Z,78.37
2022-12-11T01:59:15.072Z,78.85
2022-12-11T02:01:46.476Z,78.53
2022-12-11T02:04:15.700Z,79.05
2022-12-11T02:06:46.725Z,78.88
2022-12-11T02:09:16.709Z,78.65
2022-12-11T02:12:04.863Z,78.52
2022-12-11T02:14:37.328Z,79.15
2022-12-11T02:17:32.486Z,78.67
2022-12-11T02:20:02.124Z,78.81
2022-12-11T02:22:40.887Z,79.20
2022-12-11T02:25:19.434Z,79.23
2022-12-11T02:27:56.646Z,78.73
2022-12-11T02:30:24.784Z,79.31
2022-12-11T02:32:57.029Z,79.22
2022-12-11T02:35:39.947Z,78.41
2022-12-11T02:38:15.322Z,79.05
2022-12-11T02:40:43.199Z,79.41
2022-12-11T02:43:13.071Z,79.48
2022-12-11T02:45:41.931Z,79.60
2022-12-11T02:48:11.252Z,79.14
2022-12-11T02:50:42.901Z,78.61
2022-12-11T02:53:13.227Z,78.37
2022-12-11T02:55:41.207Z,77.96
2022-12-11T02:58:26.747Z,78.51
2022-12-11T03:00:53.556Z,78.64
2022-12-11T03:03:20.186Z,78.51
2022-12-11T03:05:47.535Z,78.60
2022-12-11T03:08:17.449Z,78.56
2022-12-11T03:10:45.760Z,78.75
2022-12-11T03:13:17.101Z,78.82
2022-12-11T03:16:11.295Z,78.51
2022-12-11T03:18:47.601Z,78.80
2022-12-11T03:21:26.218Z,78.94
2022-12-11T03:24:03.479Z,78.89
2022-12-11T03:26:35.185Z,78.84
2022-12-11T03:29:15.413Z,79.31
2022-12-11T03:32:08.894Z,79.07
2022-12-11T03:34:44.261Z,79.15
2022-12-11T03:37:14.151Z,78.89
2022-12-11T03:39:46.381Z,78.35
2022-12-11T03:42:16.543Z,78.12
2022-12-11T03:44:49.399Z,78.34
2022-12-11T03:47:22.564Z,78.44
2022-12-11T03:49:51.551Z,78.17
2022-12-11T03:52:19.639Z,78.23
2022-12-11T03:54:50.800Z,77.98
2022-12-11T03:57:21.970Z,78.09
2022-12-11T03:59:49.892Z,78.28
2022-12-11T04:02:16.677Z,78.07
2022-12-11T04:04:43.650Z,77.89
2022-12-11T04:07:10.265Z,77.39
2022-12-11T04:09:37.479Z,77.24
2022-12-11T04:12:04.301Z,77.23
2022-12-11T04:14:49.850Z,77.76
2022-12-11T04:17:36.517Z,78.07
2022-12-11T04:20:23.532Z,77.64
2022-12-11T04:23:08.810Z,78.10
2022-12-11T04:25:35.562Z,77.80
2022-12-11T04:28:02.186Z,78.21
2022-12-11T04:30:33.976Z,78.11
2022-12-11T04:33:01.476Z,78.11
2022-12-11T04:35:28.653Z,78.28
2022-12-11T04:37:55.554Z,78.56
2022-12-11T04:40:22.949Z,78.37
2022-12-11T04:42:49.640Z,78.35
2022-12-11T04:45:16.559Z,77.91
2022-12-11T04:47:43.290Z,78.18
2022-12-11T04:50:12.122Z,77.64
2022-12-11T04:52:39.066Z,78.10
2022-12-11T04:55:07.201Z,78.23
2022-12-11T04:57:34.286Z,78.05
2022-12-11T05:00:01.966Z,77.67
2022-12-11T05:02:28.730Z,77.97
2022-12-11T05:04:55.386Z,78.05
2022-12-11T05:07:22.027Z,78.16
2022-12-11T05:09:51.565Z,77.56
2022-12-11T05:12:18.182Z,78.20
2022-12-11T05:14:44.797Z,77.85
2022-12-11T05:17:11.526Z,78.33
2022-12-11T05:19:38.065Z,78.99
2022-12-11T05:22:04.647Z,78.42
2022-12-11T05:24:31.344Z,78.26
2022-12-11T05:26:57.982Z,78.08
2022-12-11T05:29:24.549Z,77.81
2022-12-11T05:31:51.403Z,78.32
2022-12-11T05:34:18.022Z,78.46
2022-12-11T05:36:44.631Z,78.43
2022-12-11T05:39:11.973Z,78.51
2022-12-11T05:41:38.845Z,78.56
2022-12-11T05:44:05.732Z,78.76
2022-12-11T05:46:32.486Z,78.24
2022-12-11T05:49:01.212Z,78.64
2022-12-11T05:51:29.628Z,78.70
2022-12-11T05:53:57.673Z,78.91
2022-12-11T05:56:30.419Z,78.56
2022-12-11T05:58:57.941Z,78.56
2022-12-11T06:01:31.211Z,78.65
2022-12-11T06:03:59.083Z,78.89
2022-12-11T06:06:27.065Z,78.46
2022-12-11T06:08:55.019Z,78.76
2022-12-11T06:11:24.317Z,78.74
2022-12-11T06:13:52.066Z,78.86
2022-12-11T06:16:19.967Z,78.49
2022-12-11T06:18:47.406Z,78.33
2022-12-11T06:21:25.918Z,78.60
2022-12-11T06:23:54.450Z,79.42
2022-12-11T06:26:21.649Z,79.30
2022-12-11T06:28:49.155Z,78.87
2022-12-11T06:31:16.880Z,79.23
2022-12-11T06:33:43.993Z,79.05
2022-12-11T06:36:13.511Z,78.91
2022-12-11T06:38:40.550Z,78.87
2022-12-11T06:41:08.653Z,78.94
2022-12-11T06:43:37.263Z,79.27
2022-12-11T06:46:08.736Z,79.03
2022-12-11T06:48:35.925Z,78.21
2022-12-11T06:51:12.416Z,78.64
2022-12-11T06:53:39.969Z,78.30
2022-12-11T06:56:10.222Z,78.84
2022-12-11T06:58:38.257Z,78.69
2022-12-11T07:01:12.678Z,78.51
2022-12-11T07:03:39.480Z,78.78
2022-12-11T07:06:06.455Z,78.96
2022-12-11T07:08:33.718Z,78.77
2022-12-11T07:11:10.281Z,78.14
2022-12-11T07:13:37.487Z,78.69
2022-12-11T07:16:10.614Z,78.58
2022-12-11T07:18:41.720Z,78.22
2022-12-11T07:21:10.492Z,77.84
2022-12-11T07:23:38.302Z,78.87
2022-12-11T07:26:10.098Z,78.62
2022-12-11T07:28:37.424Z,78.67
2022-12-11T07:31:08.355Z,78.11
2022-12-11T07:33:35.335Z,78.80
2022-12-11T07:36:07.661Z,78.94
2022-12-11T07:38:34.493Z,77.73
2022-12-11T07:41:03.070Z,77.89
2022-12-11T07:43:29.806Z,77.36
2022-12-11T07:46:03.355Z,77.55
2022-12-11T07:48:30.188Z,77.71
2022-12-11T07:50:56.849Z,78.17
2022-12-11T07:53:23.792Z,78.40
2022-12-11T07:55:50.906Z,77.91
2022-12-11T07:58:17.534Z,78.17
2022-12-11T08:00:45.356Z,78.30
2022-12-11T08:03:12.416Z,78.31
2022-12-11T08:05:39.071Z,78.47
2022-12-11T08:08:05.828Z,77.04
2022-12-11T08:10:32.515Z,77.16
2022-12-11T08:12:59.469Z,77.04
2022-12-11T08:15:26.105Z,76.72
2022-12-11T08:17:52.759Z,76.83
2022-12-11T08:20:19.429Z,76.78
2022-12-11T08:22:46.191Z,76.88
2022-12-11T08:25:13.873Z,76.68
2022-12-11T08:27:40.666Z,76.51
2022-12-11T08:30:07.935Z,76.73
2022-12-11T08:32:35.245Z,77.40
2022-12-11T08:35:02.013Z,77.48
2022-12-11T08:37:29.606Z,77.23
2022-12-11T08:39:56.325Z,76.77
2022-12-11T08:42:22.977Z,76.65
2022-12-11T08:44:50.227Z,76.16
2022-12-11T08:47:17.004Z,76.38
2022-12-11T08:49:43.777Z,75.81
2022-12-11T08:52:11.757Z,75.93
2022-12-11T08:54:38.588Z,77.06
2022-12-11T08:57:05.416Z,77.51
2022-12-11T08:59:32.184Z,78.87
2022-12-11T09:01:58.972Z,78.15
2022-12-11T09:04:25.681Z,77.82
2022-12-11T09:06:52.403Z,78.43
2022-12-11T09:09:19.147Z,77.50
2022-12-11T09:11:45.784Z,77.77
2022-12-11T09:14:12.440Z,78.48
2022-12-11T09:16:40.699Z,79.04
2022-12-11T09:19:11.649Z,78.97
2022-12-11T09:21:38.539Z,78.32
2022-12-11T09:24:05.489Z,78.12
2022-12-11T09:26:32.090Z,79.22
2022-12-11T09:28:59.129Z,79.63
2022-12-11T09:31:28.988Z,79.88
2022-12-11T09:33:57.841Z,79.70
2022-12-11T09:36:25.254Z,80.64
2022-12-11T09:38:52.960Z,80.79
2022-12-11T09:41:22.495Z,80.13
2022-12-11T09:44:01.670Z,80.85
2022-12-11T09:46:33.762Z,79.93
2022-12-11T09:49:03.703Z,79.56
2022-12-11T09:51:37.466Z,79.01
2022-12-11T09:54:04.956Z,79.30
2022-12-11T09:56:42.779Z,79.24
2022-12-11T09:59:23.981Z,79.18
2022-12-11T10:02:00.687Z,79.28
2022-12-11T10:04:55.418Z,79.62
2022-12-11T10:07:22.063Z,79.47
2022-12-11T10:09:49.097Z,79.26
2022-12-11T10:12:30.021Z,78.65
2022-12-11T10:15:17.536Z,78.36
2022-12-11T10:17:44.766Z,77.85
2022-12-11T10:20:31.198Z,77.43
2022-12-11T10:22:59.197Z,77.96
2022-12-11T10:25:31.234Z,78.20
2022-12-11T10:27:58.297Z,78.95
2022-12-11T10:30:32.941Z,78.90
2022-12-11T10:33:27.136Z,78.22
2022-12-11T10:35:56.943Z,77.96
2022-12-11T10:38:32.425Z,78.55
2022-12-11T10:41:02.634Z,78.71
2022-12-11T10:43:46.627Z,77.60
2022-12-11T10:46:23.438Z,78.50
2022-12-11T10:48:53.377Z,77.33
2022-12-11T10:51:31.275Z,77.87
2022-12-11T10:54:17.127Z,77.60
2022-12-11T10:56:48.285Z,77.71
2022-12-11T10:59:30.072Z,78.30
2022-12-11T11:01:57.916Z,77.38
2022-12-11T11:04:31.790Z,78.21
2022-12-11T11:07:04.577Z,77.73
2022-12-11T11:09:37.860Z,77.07
2022-12-11T11:12:08.033Z,78.05
2022-12-11T11:14:35.067Z,77.69
2022-12-11T11:17:01.810Z,78.47
2022-12-11T11:19:34.821Z,78.70
2022-12-11T11:22:14.845Z,78.51
2022-12-11T11:24:45.685Z,78.34
2022-12-11T11:27:24.518Z,79.10
2022-12-11T11:29:58.142Z,78.48
2022-12-11T11:32:38.694Z,78.00
2022-12-11T11:35:14.375Z,78.83
2022-12-11T11:37:44.994Z,79.10
2022-12-11T11:40:15.232Z,79.13
2022-12-11T11:43:20.964Z,79.67
2022-12-11T11:45:59.471Z,80.17
2022-12-11T11:48:38.322Z,79.53
2022-12-11T11:51:17.023Z,79.98
2022-12-11T11:53:49.678Z,80.35
2022-12-11T11:56:25.467Z,79.02
2022-12-11T11:59:02.250Z,78.73
2022-12-11T12:01:30.206Z,79.70
2022-12-11T12:03:57.596Z,80.20
2022-12-11T12:06:34.242Z,80.03
2022-12-11T12:09:15.632Z,79.75
2022-12-11T12:12:07.250Z,79.33
2022-12-11T12:14:51.974Z,80.33
2022-12-11T12:17:43.381Z,79.22
2022-12-11T12:20:35.221Z,79.51
2022-12-11T12:23:23.923Z,79.65
2022-12-11T12:26:02.548Z,80.23
2022-12-11T12:28:37.324Z,79.76
2022-12-11T12:31:20.232Z,80.05
2022-12-11T12:34:16.466Z,80.35
2022-12-11T12:37:20.684Z,80.36
2022-12-11T12:40:13.178Z,80.71
2022-12-11T12:43:00.895Z,81.37
2022-12-11T12:45:44.255Z,81.59
2022-12-11T12:48:10.960Z,82.53
2022-12-11T12:50:42.751Z,82.61
2022-12-11T12:53:15.990Z,82.54
2022-12-11T12:55:44.009Z,83.75
2022-12-11T12:58:34.938Z,83.37
2022-12-11T13:01:08.907Z,83.43
2022-12-11T13:03:49.425Z,83.84
2022-12-11T13:06:16.366Z,83.13
2022-12-11T13:08:47.323Z,83.00
2022-12-11T13:11:17.572Z,83.26
2022-12-11T13:13:54.855Z,82.86
2022-12-11T13:16:27.047Z,83.58
2022-12-11T13:18:54.754Z,82.63
2022-12-11T13:21:38.219Z,82.35
2022-12-11T13:24:34.318Z,82.77
2022-12-11T13:27:22.187Z,82.89
2022-12-11T13:29:49.197Z,82.52
2022-12-11T13:32:16.223Z,81.98
2022-12-11T13:34:47.155Z,82.10
2022-12-11T13:37:39.648Z,82.78
2022-12-11T13:40:15.409Z,83.40
2022-12-11T13:42:57.421Z,82.94
2022-12-11T13:45:29.638Z,82.99
2022-12-11T13:47:59.985Z,82.90
2022-12-11T13:50:33.123Z,84.23
2022-12-11T13:53:03.442Z,85.55
2022-12-11T13:55:33.013Z,86.77
2022-12-11T13:58:00.847Z,87.29
2022-12-11T14:00:32.901Z,88.05
2022-12-11T14:03:04.753Z,88.16
2022-12-11T14:05:31.839Z,88.40
2022-12-11T14:08:02.654Z,88.67
2022-12-11T14:10:33.130Z,88.70
2022-12-11T14:13:06.307Z,89.33
2022-12-11T14:15:36.007Z,88.36
2022-12-11T14:18:05.265Z,88.81
2022-12-11T14:20:37.167Z,89.86
2022-12-11T14:23:09.507Z,89.87
2022-12-11T14:25:36.215Z,89.40
2022-12-11T14:28:03.772Z,89.01
2022-12-11T14:30:35.803Z,89.71
2022-12-11T14:33:05.569Z,89.32
2022-12-11T14:35:39.130Z,89.43
2022-12-11T14:38:14.577Z,89.90
2022-12-11T14:40:45.480Z,89.96
2022-12-11T14:43:19.778Z,89.78
2022-12-11T14:45:50.212Z,90.17
2022-12-11T14:48:23.410Z,90.03
2022-12-11T14:50:53.564Z,89.52
2022-12-11T14:53:35.612Z,90.96
2022-12-11T14:56:06.938Z,90.74
2022-12-11T14:58:41.264Z,91.66
2022-12-11T15:01:22.863Z,91.28
2022-12-11T15:03:49.640Z,91.97
2022-12-11T15:06:30.133Z,92.23
2022-12-11T15:08:57.249Z,92.67
2022-12-11T15:11:30.097Z,92.68
2022-12-11T15:13:59.397Z,91.54
2022-12-11T15:16:29.428Z,91.37
2022-12-11T15:18:59.035Z,91.78
2022-12-11T15:21:31.732Z,91.91
2022-12-11T15:24:00.925Z,92.41
2022-12-11T15:26:45.014Z,92.21
2022-12-11T15:29:31.018Z,91.59
2022-12-11T15:32:09.968Z,91.87
2022-12-11T15:34:52.187Z,91.79
2022-12-11T15:37:40.049Z,90.87
2022-12-11T15:40:07.874Z,90.79
2022-12-11T15:42:36.725Z,90.73
2022-12-11T15:45:06.782Z,90.75
2022-12-11T15:47:33.645Z,90.66
2022-12-11T15:50:03.033Z,89.48
2022-12-11T15:52:29.886Z,90.12
2022-12-11T15:54:57.611Z,89.59
2022-12-11T15:57:24.898Z,88.73
2022-12-11T15:59:54.224Z,89.00
2022-12-11T16:02:21.123Z,89.26
2022-12-11T16:04:47.859Z,89.23
2022-12-11T16:07:25.688Z,88.49
2022-12-11T16:09:52.746Z,88.78
2022-12-11T16:12:19.471Z,88.48
2022-12-11T16:14:47.001Z,88.63
2022-12-11T16:17:15.384Z,87.98
2022-12-11T16:19:43.601Z,87.79
2022-12-11T16:22:12.311Z,87.49
2022-12-11T16:24:39.663Z,87.74
2022-12-11T16:27:09.556Z,87.99
2022-12-11T16:29:37.777Z,87.66
2022-12-11T16:32:07.095Z,87.50
2022-12-11T16:34:35.132Z,87.46
2022-12-11T16:37:03.645Z,87.17
2022-12-11T16:39:30.612Z,87.27
2022-12-11T16:41:57.317Z,86.93
2022-12-11T16:44:25.907Z,86.22
2022-12-11T16:46:53.745Z,86.87
2022-12-11T16:49:22.953Z,86.42
2022-12-11T16:51:53.727Z,86.23
2022-12-11T16:54:21.805Z,85.77
2022-12-11T16:56:48.458Z,86.06
2022-12-11T16:59:15.100Z,86.01
2022-12-11T17:01:41.831Z,85.50
2022-12-11T17:04:08.761Z,86.33
2022-12-11T17:06:35.442Z,86.12
2022-12-11T17:09:02.203Z,86.92
2022-12-11T17:11:28.907Z,86.56
2022-12-11T17:13:57.439Z,86.54
2022-12-11T17:16:26.556Z,86.29
2022-12-11T17:18:54.563Z,86.46
2022-12-11T17:21:22.413Z,86.61
2022-12-11T17:23:50.065Z,85.35
2022-12-11T17:26:17.352Z,85.50
2022-12-11T17:28:45.206Z,85.37
2022-12-11T17:31:18.208Z,85.36
2022-12-11T17:33:46.133Z,85.52
2022-12-11T17:36:19.795Z,85.27
2022-12-11T17:38:47.381Z,85.38
2022-12-11T17:41:20.381Z,85.87
2022-12-11T17:43:48.970Z,85.45
2022-12-11T17:46:15.801Z,84.71
2022-12-11T17:48:43.047Z,84.94
2022-12-11T17:51:12.812Z,85.52
2022-12-11T17:53:40.153Z,84.76
2022-12-11T17:56:09.466Z,85.32
2022-12-11T17:58:36.099Z,85.08
2022-12-11T18:01:09.361Z,85.35
2022-12-11T18:03:38.225Z,84.90
2022-12-11T18:06:11.412Z,85.61
2022-12-11T18:08:38.838Z,85.44
2022-12-11T18:11:13.135Z,84.61
2022-12-11T18:13:40.160Z,84.61
2022-12-11T18:16:14.182Z,85.35
2022-12-11T18:18:40.952Z,85.44
2022-12-11T18:21:08.826Z,84.85
2022-12-11T18:23:35.476Z,85.29
2022-12-11T18:26:02.274Z,85.04
2022-12-11T18:28:31.705Z,84.54
2022-12-11T18:31:02.659Z,84.79
2022-12-11T18:33:30.654Z,85.02
2022-12-11T18:35:57.279Z,84.42
2022-12-11T18:38:23.991Z,84.70
2022-12-11T18:40:50.620Z,84.79
2022-12-11T18:43:17.247Z,84.85
2022-12-11T18:45:47.021Z,84.65
2022-12-11T18:48:14.971Z,83.80
2022-12-11T18:50:46.183Z,84.10
2022-12-11T18:53:13.239Z,84.48
2022-12-11T18:55:48.866Z,83.98
2022-12-11T18:58:19.068Z,84.28
2022-12-11T19:00:47.058Z,83.76
2022-12-11T19:03:14.198Z,84.12
2022-12-11T19:05:44.894Z,84.03
2022-12-11T19:08:13.902Z,83.88
2022-12-11T19:10:45.891Z,83.73
2022-12-11T19:13:13.570Z,83.75
2022-12-11T19:15:44.313Z,84.21
2022-12-11T19:18:11.368Z,84.00
2022-12-11T19:21:03.288Z,83.63
2022-12-11T19:23:27.388Z,84.32
2022-12-11T19:25:54.712Z,84.38
2022-12-11T19:28:23.754Z,83.75
2022-12-11T19:30:50.731Z,83.62
2022-12-11T19:33:17.533Z,83.92
2022-12-11T19:35:44.600Z,84.12
2022-12-11T19:38:12.823Z,83.66
2022-12-11T19:40:44.268Z,83.56
2022-12-11T19:43:11.495Z,83.68
2022-12-11T19:45:38.348Z,83.31
2022-12-11T19:48:05.707Z,83.76
2022-12-11T19:50:35.373Z,83.43
2022-12-11T19:53:03.004Z,83.23
2022-12-11T19:55:29.856Z,83.25
2022-12-11T19:57:56.917Z,83.00
2022-12-11T20:00:24.582Z,82.76
2022-12-11T20:02:51.721Z,82.55
2022-12-11T20:05:18.575Z,82.63
2022-12-11T20:07:45.369Z,82.80
2022-12-11T20:10:12.535Z,82.75
2022-12-11T20:12:39.145Z,82.77
2022-12-11T20:15:06.250Z,82.88
2022-12-11T20:17:33.374Z,82.46
2022-12-11T20:20:00.244Z,82.07
2022-12-11T20:22:26.832Z,82.85
2022-12-11T20:24:53.454Z,82.70
2022-12-11T20:27:20.045Z,82.72
2022-12-11T20:29:46.596Z,82.11
2022-12-11T20:32:13.339Z,82.31
2022-12-11T20:34:40.245Z,82.63
2022-12-11T20:37:07.739Z,82.09
2022-12-11T20:39:35.584Z,82.59
2022-12-11T20:42:04.752Z,82.15
2022-12-11T20:44:32.116Z,82.23
2022-12-11T20:46:58.879Z,81.93
2022-12-11T20:49:26.296Z,82.16
2022-12-11T20:51:53.093Z,82.05
2022-12-11T20:54:19.829Z,82.11
2022-12-11T20:56:46.692Z,82.11
2022-12-11T20:59:13.473Z,82.01
2022-12-11T21:01:40.345Z,81.98
2022-12-11T21:04:07.039Z,82.14
2022-12-11T21:06:36.030Z,82.02
2022-12-11T21:09:13.957Z,81.83
2022-12-11T21:11:40.723Z,81.91
2022-12-11T21:14:07.439Z,82.35
2022-12-11T21:16:36.620Z,82.05
2022-12-11T21:19:04.893Z,82.13
2022-12-11T21:21:33.269Z,82.16
2022-12-11T21:23:59.870Z,82.31
2022-12-11T21:26:26.458Z,82.32
2022-12-11T21:28:53.327Z,81.93
2022-12-11T21:31:20.147Z,82.13
2022-12-11T21:33:48.168Z,81.84
2022-12-11T21:36:15.434Z,82.03
2022-12-11T21:38:44.158Z,81.69
2022-12-11T21:41:16.882Z,81.94
2022-12-11T21:44:32.918Z,81.87
2022-12-11T21:46:31.839Z,81.93
2022-12-11T21:48:59.666Z,82.33
2022-12-11T21:51:34.355Z,81.24
2022-12-11T21:54:06.381Z,82.28
2022-12-11T21:56:33.032Z,81.31
2022-12-11T21:59:01.418Z,81.96
2022-12-11T22:01:32.278Z,81.71
2022-12-11T22:03:59.564Z,81.55
2022-12-11T22:06:26.486Z,81.96
2022-12-11T22:08:56.156Z,81.46
2022-12-11T22:11:30.179Z,82.14
2022-12-11T22:13:57.386Z,82.02
2022-12-11T22:16:24.316Z,82.10
2022-12-11T22:18:51.147Z,82.03
2022-12-11T22:21:17.967Z,81.98
2022-12-11T22:23:45.093Z,81.74
2022-12-11T22:26:17.803Z,81.34
2022-12-11T22:28:44.490Z,81.59
2022-12-11T22:31:12.646Z,81.86
2022-12-11T22:33:39.671Z,81.93
2022-12-11T22:36:06.820Z,81.71
2022-12-11T22:38:34.804Z,81.50
2022-12-11T22:41:03.037Z,81.32
2022-12-11T22:43:29.741Z,81.09
2022-12-11T22:45:56.438Z,81.36
2022-12-11T22:48:27.268Z,81.81
2022-12-11T22:50:54.589Z,81.76
2022-12-11T22:53:21.715Z,81.54
2022-12-11T22:55:48.366Z,82.28
2022-12-11T22:58:21.432Z,81.99
2022-12-11T23:00:48.624Z,81.84
2022-12-11T23:03:15.438Z,82.07
2022-12-11T23:05:43.248Z,82.03
2022-12-11T23:08:09.960Z,82.17
2022-12-11T23:10:40.379Z,81.92
2022-12-11T23:13:07.038Z,81.97
2022-12-11T23:15:33.728Z,81.47
2022-12-11T23:18:00.305Z,81.13
2022-12-11T23:20:27.466Z,81.69
2022-12-11T23:22:54.049Z,82.51
2022-12-11T23:25:20.722Z,83.32
2022-12-11T23:27:47.395Z,83.60
2022-12-11T23:30:14.112Z,84.19
2022-12-11T23:32:40.753Z,84.07
2022-12-11T23:35:07.815Z,84.05
2022-12-11T23:37:34.474Z,84.27
2022-12-11T23:40:01.255Z,84.89
2022-12-11T23:42:27.861Z,85.14
2022-12-11T23:44:54.542Z,85.92
2022-12-11T23:47:21.190Z,85.67
2022-12-11T23:49:47.793Z,86.24
2022-12-11T23:52:14.388Z,86.08
2022-12-11T23:54:41.012Z,86.67
2022-12-11T23:57:07.622Z,86.76
2022-12-11T23:59:34.375Z,86.48
